ADDS METAR Data INFO
IDs: Format: Raw Decoded Include TAF

Data at: 1051 UTC 19 Oct 2017

KFHU 190958Z AUTO 22006KT 10SM CLR 18/01 A3007 RMK AO2 SLP109 T01810013 $
KFHU 190858Z AUTO 22007KT 10SM CLR 19/02 A3008 RMK AO2 SLP112 T01850015 58007
KFHU 190846Z AUTO 22007KT 10SM CLR 19/01 A3008 RMK AO2 SLP112
KFHU 190758Z AUTO 20008KT 10SM CLR 18/02 A3010 RMK AO2 SLP119 T01820016
KFHU 190658Z AUTO 21007KT 10SM CLR 20/02 A3011 RMK AO2 SLP120 T01980015 403070185
KFHU 190558Z AUTO 22007KT 10SM CLR 20/02 A3011 RMK AO2 SLP123 T02030017 10282 20196 50002
KFHU 190458Z AUTO 25008KT 10SM CLR 21/02 A3012 RMK AO2 SLP126 T02110018
KFHU 190358Z AUTO 00000KT 10SM CLR 22/02 A3011 RMK AO2 SLPNO T02160023
KFHU 190258Z AUTO 25009KT 10SM CLR 23/02 A3010 RMK AO2 SLPNO T02260024 51006
KFHU 190158Z AUTO 28007KT 10SM CLR 23/02 A3010 RMK AO2 SLP126 T02280023
KFHU 190058Z AUTO 32004KT 10SM OVC220 26/03 A3010 RMK AO2 SLP122 T02600027
KFHU 190057Z AUTO 32004KT 10SM OVC220 26/03 A3010 RMK AO2 SLP122
KFHU 182358Z AUTO 31009KT 10SM FEW100 29/03 A3008 RMK AO2 SLP110 T02860027 10307 20279 57006
KFHU 182258Z AUTO 32009KT 10SM OVC120 30/03 A3008 RMK AO2 SLP107 T03030025
KFHU 182243Z AUTO 30011KT 10SM OVC110 31/03 A3009 RMK AO2 WSHFT 39 SLP111
KFHU 182158Z AUTO 33006KT 10SM BKN110 29/03 A3010 RMK AO2 SLP117 T02870028
KFHU 182058Z AUTO 30006KT 10SM BKN100 BKN120 28/03 A3010 RMK AO2 SLP119 T02840033 57026
KFHU 182026Z AUTO 00000KT 10SM BKN100 28/04 A3011 RMK AO2 SLP120
KFHU 181958Z AUTO 06005KT 10SM FEW100 30/04 A3013 RMK AO2 SLP125 T03000040 $
KFHU 181957Z 06005KT 10SM SCT100 BKN210 30/04 A3013 RMK AO2A SLP125 $
KFHU 181923Z 00000KT 10SM SCT100 BKN210 30/04 A3015 RMK AO2A SLP132 $
KFHU 181858Z 00000KT 10SM FEW100 SCT210 29/04 A3017 RMK AO2A SLP139 T02890041
KFHU 181846Z 07005KT 10SM FEW100 SCT210 28/04 A3017 RMK AO2A SLP141 $
KFHU 181758Z 35006KT 10SM CLR 28/04 A3019 RMK AO2A SLP148 WND DATA ESTMD T02770039 10287 20189 $
KFHU 181658Z 31004KT 10SM FEW090 SCT210 26/03 A3020 RMK AO2A SLP152 T02620029 $
KFHU 181558Z 34004KT 10SM SCT090 25/03 A3020 RMK AO2A SLP154 T02480034 $
KFHU 181530Z AUTO 35003KT 10SM BKN085 24/04 A3020 RMK AO2 SLP154
KFHU 181458Z AUTO 00000KT 10SM FEW085 21/05 A3018 RMK AO2 SLP149 T02130047 52009
KFHU 181450Z AUTO 00000KT 10SM FEW085 21/05 A3018 RMK AO2 SLP149
KFHU 181358Z AUTO 00000KT 10SM BKN200 OVC230 19/05 A3016 RMK AO2 SLP145 T01920046
KFHU 181258Z AUTO 21004KT 10SM SCT095 20/05 A3015 RMK AO2 SLP139 T01970046 $
KFHU 181158Z AUTO 23006KT 10SM OVC085 21/04 A3015 RMK AO2 SLP134 T02060044 10224 20200 55003 $
KFHU 181058Z AUTO 23006KT 10SM BKN085 BKN110 21/05 A3014 RMK AO2 SLP131 T02050045 $
KFHU 180958Z AUTO 22007KT 10SM OVC090 21/05 A3014 RMK AO2 SLP133 T02050045 $
KFHU 180955Z AUTO 22007KT 10SM BKN090 20/04 A3014 RMK AO2 SLP133
KFHU 180858Z AUTO 23006KT 10SM CLR 20/05 A3016 RMK AO2 SLP140 T02020051 57004 $
KFHU 180758Z AUTO 23004KT 10SM BKN095 22/05 A3017 RMK AO2 SLP139 T02160047 $
KFHU 180658Z AUTO 24007KT 10SM FEW090 22/03 A3017 RMK AO2 SLP141 T02180034 402900145 $
KFHU 180558Z AUTO 25008KT 10SM CLR 22/04 A3017 RMK AO2 SLP144 60000 T02230038 10276 20223 50002 $
KFHU 180458Z AUTO 25010KT 10SM CLR 23/05 A3018 RMK AO2 SLP145 T02260050 $
KFHU 180358Z 23005KT 10SM BKN090 BKN110 23/07 A3018 RMK AO2A SLP149 T02310072 $
KFHU 180258Z AUTO 00000KT 10SM OVC090 24/07 A3017 RMK AO2 SLP148 60000 T02400074 52005
KFHU 180158Z AUTO 00000KT 10SM OVC095 25/08 A3016 RMK AO2 RAB01E10 SLP147 P0000 T02460080
KFHU 180110Z 00000KT 10SM VCSH BKN090 OVC120 26/09 A3015 RMK AO2A RAB01E10 SLP144 SH E
KFHU 180101Z 19003KT 10SM -RA BKN090 OVC120 26/07 A3015 RMK AO2A RAB01 SLP144
KFHU 180058Z 19003KT 10SM VCSH OVC090 26/07 A3015 RMK AO2A SLP144 SH E T02640074
KFHU 172358Z AUTO 00000KT 10SM BKN095 BKN130 28/07 A3015 RMK AO2 SLP141 T02780071 10290 20261 57011
KFHU 172258Z AUTO 00000KT 10SM FEW095 BKN130 28/07 A3016 RMK AO2 SLP145 T02800073